Terminal Aerodrome Forecast
Issued by NWS

Home | Current Version | Previous Version | Text Only | Print | Product List | Glossary On
Versions: 1 2 3 4 5 6 7 8 9 10 11 12 13 14 15 16 17 18 19 20 21 22 23 24 25 26
000
FTUS44 KOUN 021121
TAFWWR
TAF
KWWR 021121Z 0212/0312 33016G25KT P6SM OVC030
      TEMPO 0215/0219 -RA OVC020
     FM022100 34014KT P6SM BKN050
     FM030000 29007KT P6SM SKC=

USA.gov is the U.S. government's official web portal to all federal, state and local government web resources and services.